Time;durP1;ratioP1;P1;durP2;ratioP2;P2;SDS_P1;SDS_P2;PMS_P1;PMS_P2;Temp;Humidity;BMP_temperature;BMP_pressure;BME280_temperature;BME280_humidity;BME280_pressure;Samples;Min_cycle;Max_cycle;Signal;HPM_P1;HPM_P2
2021/12/01 00:00:28;;;;;;;;;;;;;;;2.71;100.00;98006.63;1750249;81;20281;-86
2021/12/01 00:02:56;;;;;;;;;;;;;;;2.95;100.00;98024.60;1751735;80;20389;-83
2021/12/01 00:05:23;;;;;;;;;;;;;;;3.05;100.00;98027.89;1752947;81;20216;-83
2021/12/01 00:07:49;;;;;;;;;;;;;;;3.06;100.00;98054.27;1745184;80;21902;-86
2021/12/01 00:10:17;;;;;;;;;;;;;;;2.91;100.00;98065.02;1753421;80;20181;-84
2021/12/01 00:12:43;;;;;;;;;;;;;;;2.81;98.46;98072.48;1750249;80;20190;-80
2021/12/01 00:15:11;;;;;;;;;;;;;;;2.90;97.67;98082.93;1753382;81;20185;-85
2021/12/01 00:17:39;;;;;;;;;;;;;;;3.03;97.69;98075.45;1720184;81;20200;-82
2021/12/01 00:20:11;;;;;;;;;;;;;;;2.90;96.50;98094.66;1717534;81;21047;-82
2021/12/01 00:22:37;;;;;;;;;;;;;;;2.90;95.98;98112.41;1758538;81;20124;-81
2021/12/01 00:25:08;;;;;;;;;;;;;;;3.01;96.06;98113.42;1743598;80;20262;-86
2021/12/01 00:27:35;;;;;;;;;;;;;;;2.87;96.53;98130.50;1744158;80;20198;-85
2021/12/01 00:30:02;;;;;;;;;;;;;;;3.02;96.28;98127.30;1727264;81;20467;-87
2021/12/01 00:32:28;;;;;;;;;;;;;;;2.96;94.15;98135.25;1742846;81;21885;-84
2021/12/01 00:34:58;;;;;;;;;;;;;;;2.91;94.35;98144.53;1751859;80;20199;-85
2021/12/01 00:37:22;;;;;;;;;;;;;;;2.91;94.40;98170.60;1750644;81;20122;-83
2021/12/01 00:39:48;;;;;;;;;;;;;;;2.79;94.43;98159.62;1753321;80;20134;-84
2021/12/01 00:42:20;;;;;;;;;;;;;;;2.77;94.69;98183.73;1749755;80;20830;-83
2021/12/01 00:45:00;;;;;;;;;;;;;;;2.84;94.35;98184.25;1747426;80;21151;-83
2021/12/01 00:47:41;;;;;;;;;;;;;;;2.82;95.02;98180.16;1751553;80;20120;-83
2021/12/01 00:49:58;;;;;;;;;;;;;;;2.76;94.54;98196.42;1737816;80;20661;-85
2021/12/01 00:52:26;;;;;;;;;;;;;;;2.75;93.88;98198.22;1752981;81;20095;-80
2021/12/01 00:54:54;;;;;;;;;;;;;;;2.82;94.77;98204.42;1748235;81;20206;-81
2021/12/01 00:57:23;;;;;;;;;;;;;;;2.81;95.18;98210.63;1751506;80;22498;-82
2021/12/01 00:59:49;;;;;;;;;;;;;;;2.81;95.46;98228.88;1720943;81;20135;-82
2021/12/01 01:02:14;;;;;;;;;;;;;;;2.71;94.93;98254.22;1751834;81;20148;-82
2021/12/01 01:04:42;;;;;;;;;;;;;;;2.57;95.27;98231.33;1752558;81;20259;-82
2021/12/01 01:07:08;;;;;;;;;;;;;;;2.64;94.94;98232.33;1748854;80;20154;-82
2021/12/01 01:09:35;;;;;;;;;;;;;;;2.68;95.20;98237.58;1754908;81;21147;-81
2021/12/01 01:17:36;;;;;;;;;;;;;;;2.57;94.79;98261.30;1753555;81;20264;-83
2021/12/01 01:20:05;;;;;;;;;;;;;;;2.60;95.14;98264.40;1721494;81;20228;-85
2021/12/01 01:22:31;;;;;;;;;;;;;;;2.63;94.66;98278.43;1722326;81;21199;-82
2021/12/01 01:24:57;;;;;;;;;;;;;;;2.61;94.52;98278.23;1742225;81;20441;-83
2021/12/01 01:27:25;;;;;;;;;;;;;;;2.65;94.56;98288.20;1757193;81;20229;-82
2021/12/01 01:29:52;;;;;;;;;;;;;;;2.68;94.12;98294.91;1767106;80;20229;-88
2021/12/01 01:32:20;;;;;;;;;;;;;;;2.63;93.39;98295.86;1771511;80;20725;-84
2021/12/01 01:34:46;;;;;;;;;;;;;;;2.60;93.42;98315.22;1766268;80;21150;-89
2021/12/01 01:37:11;;;;;;;;;;;;;;;2.47;94.29;98323.88;1774769;80;20523;-83
2021/12/01 01:39:42;;;;;;;;;;;;;;;2.38;95.21;98325.62;1767102;80;20149;-82
2021/12/01 01:42:10;;;;;;;;;;;;;;;2.47;95.09;98333.84;1771947;80;21181;-83
2021/12/01 01:44:35;;;;;;;;;;;;;;;2.32;95.11;98356.16;1771216;80;20474;-85
2021/12/01 01:47:01;;;;;;;;;;;;;;;2.37;95.29;98340.90;1771112;80;21197;-83
2021/12/01 01:52:10;;;;;;;;;;;;;;;2.26;95.55;98363.27;1771769;80;20151;-85
2021/12/01 01:54:38;;;;;;;;;;;;;;;2.36;95.64;98367.91;1767526;80;20180;-85
2021/12/01 01:57:04;;;;;;;;;;;;;;;2.21;95.65;98377.22;1746668;80;20188;-88
2021/12/01 01:59:30;;;;;;;;;;;;;;;2.20;95.97;98371.66;1742081;80;21089;-85
2021/12/01 02:01:57;;;;;;;;;;;;;;;2.36;95.55;98370.51;1765385;79;20159;-86
2021/12/01 02:04:25;;;;;;;;;;;;;;;2.54;95.25;98373.62;1772016;80;20458;-84
2021/12/01 02:06:54;;;;;;;;;;;;;;;2.72;94.17;98379.66;1766613;80;20489;-82
2021/12/01 02:09:21;;;;;;;;;;;;;;;2.86;93.95;98396.06;1746390;80;20169;-84
2021/12/01 02:11:47;;;;;;;;;;;;;;;2.86;92.74;98404.38;1763291;80;21248;-84
2021/12/01 02:14:16;;;;;;;;;;;;;;;2.73;93.46;98416.47;1771418;80;20185;-85
2021/12/01 02:16:44;;;;;;;;;;;;;;;2.72;93.73;98412.23;1746133;80;20203;-84
2021/12/01 02:19:13;;;;;;;;;;;;;;;2.67;93.61;98420.97;1768490;80;20225;-84
2021/12/01 02:21:39;;;;;;;;;;;;;;;2.68;93.30;98452.59;1771320;80;20105;-85
2021/12/01 02:24:10;;;;;;;;;;;;;;;2.74;93.40;98444.17;1742317;80;20996;-85
2021/12/01 02:26:38;;;;;;;;;;;;;;;2.75;93.88;98432.80;1748065;80;20170;-84
2021/12/01 02:29:05;;;;;;;;;;;;;;;2.66;93.84;98439.70;1771214;80;20285;-84
2021/12/01 02:31:35;;;;;;;;;;;;;;;2.67;94.06;98453.55;1772526;80;20183;-85
2021/12/01 02:34:09;;;;;;;;;;;;;;;2.70;93.50;98468.89;1765778;80;20299;-86
2021/12/01 02:36:35;;;;;;;;;;;;;;;2.65;93.58;98484.16;1760366;80;20149;-86
2021/12/01 02:39:01;;;;;;;;;;;;;;;2.49;93.86;98486.91;1767012;80;20175;-85
2021/12/01 02:41:31;;;;;;;;;;;;;;;2.40;94.00;98491.69;1769159;80;20158;-82
2021/12/01 02:43:57;;;;;;;;;;;;;;;2.50;93.94;98501.59;1761172;80;20610;-82
2021/12/01 02:46:24;;;;;;;;;;;;;;;2.62;93.74;98498.28;1780108;79;20205;-84
2021/12/01 02:48:50;;;;;;;;;;;;;;;2.58;93.71;98507.84;1766014;80;21198;-89
2021/12/01 02:51:17;;;;;;;;;;;;;;;2.58;94.16;98519.56;1767444;79;20254;-86
2021/12/01 02:53:43;;;;;;;;;;;;;;;2.54;93.55;98542.99;1765020;80;20181;-85
2021/12/01 02:56:09;;;;;;;;;;;;;;;2.51;93.75;98531.88;1771150;80;20199;-88
2021/12/01 02:58:40;;;;;;;;;;;;;;;2.47;93.78;98548.78;1772604;80;21108;-86
2021/12/01 03:01:09;;;;;;;;;;;;;;;2.37;94.24;98546.69;1767584;80;20134;-83
2021/12/01 03:03:37;;;;;;;;;;;;;;;2.41;94.20;98562.38;1768704;80;20573;-83
2021/12/01 03:06:03;;;;;;;;;;;;;;;2.43;93.60;98557.03;1761861;79;20192;-84
2021/12/01 03:08:29;;;;;;;;;;;;;;;2.17;94.64;98560.75;1761294;80;20840;-84
2021/12/01 03:10:57;;;;;;;;;;;;;;;2.39;94.14;98581.22;1764177;80;20319;-84
2021/12/01 03:13:23;;;;;;;;;;;;;;;2.48;93.21;98575.16;1758725;79;21241;-85
2021/12/01 03:15:51;;;;;;;;;;;;;;;2.59;92.95;98581.97;1758105;80;20295;-88
2021/12/01 03:18:20;;;;;;;;;;;;;;;2.56;92.80;98593.16;1744135;82;20172;-84
2021/12/01 03:20:47;;;;;;;;;;;;;;;2.53;92.26;98581.73;1747507;79;20160;-85
2021/12/01 03:23:13;;;;;;;;;;;;;;;2.55;91.61;98583.23;1755794;79;20623;-86
2021/12/01 03:25:39;;;;;;;;;;;;;;;2.42;91.54;98584.03;1752602;79;21105;-90
2021/12/01 03:28:06;;;;;;;;;;;;;;;2.19;91.43;98609.59;1755001;79;20486;-84
2021/12/01 03:30:37;;;;;;;;;;;;;;;2.43;91.51;98593.50;1751093;79;20197;-85
2021/12/01 03:32:59;;;;;;;;;;;;;;;2.60;90.74;98580.20;1751313;79;20110;-84
2021/12/01 03:35:28;;;;;;;;;;;;;;;2.55;90.14;98598.03;1752405;79;20198;-85
2021/12/01 03:37:53;;;;;;;;;;;;;;;2.59;90.31;98599.39;1751963;79;21204;-86
2021/12/01 03:40:20;;;;;;;;;;;;;;;2.24;91.02;98616.03;1755868;79;20161;-87
2021/12/01 03:42:46;;;;;;;;;;;;;;;2.30;91.06;98615.47;1750992;79;20346;-83
2021/12/01 03:45:14;;;;;;;;;;;;;;;2.25;91.18;98625.95;1747807;81;21244;-84
2021/12/01 03:47:40;;;;;;;;;;;;;;;2.34;90.04;98628.53;1720297;81;20204;-85
2021/12/01 03:50:10;;;;;;;;;;;;;;;2.27;89.59;98631.84;1763642;79;21074;-86
2021/12/01 03:52:36;;;;;;;;;;;;;;;2.13;89.03;98668.28;1767075;80;20339;-84
2021/12/01 03:55:04;;;;;;;;;;;;;;;2.07;87.66;98649.31;1732868;80;20172;-87
2021/12/01 03:57:29;;;;;;;;;;;;;;;2.06;86.20;98661.48;1757965;80;20614;-86
2021/12/01 03:59:58;;;;;;;;;;;;;;;2.08;85.41;98653.08;1759633;80;20151;-85
2021/12/01 04:02:25;;;;;;;;;;;;;;;2.12;85.78;98653.12;1758775;80;21730;-84
2021/12/01 04:04:52;;;;;;;;;;;;;;;2.12;86.26;98653.12;1751439;80;20110;-84
2021/12/01 04:07:21;;;;;;;;;;;;;;;2.07;86.84;98667.53;1761865;80;20195;-84
2021/12/01 04:09:47;;;;;;;;;;;;;;;2.29;87.26;98671.61;1733048;80;20807;-85
2021/12/01 04:12:14;;;;;;;;;;;;;;;2.30;87.76;98660.21;1757566;80;20184;-84
2021/12/01 04:14:40;;;;;;;;;;;;;;;2.33;87.09;98675.56;1757767;80;21176;-84
2021/12/01 04:17:08;;;;;;;;;;;;;;;2.13;85.81;98678.20;1761913;80;20243;-84
2021/12/01 04:19:37;;;;;;;;;;;;;;;2.25;86.19;98680.66;1766227;80;20139;-86
2021/12/01 04:22:03;;;;;;;;;;;;;;;1.94;87.24;98682.11;1758377;80;20209;-84
2021/12/01 04:24:29;;;;;;;;;;;;;;;2.01;87.62;98685.82;1765991;80;20371;-85
2021/12/01 04:26:57;;;;;;;;;;;;;;;1.98;87.33;98686.09;1758960;80;21167;-87
2021/12/01 04:29:25;;;;;;;;;;;;;;;2.06;87.44;98686.22;1750871;80;20147;-87
2021/12/01 04:31:50;;;;;;;;;;;;;;;2.04;87.74;98681.64;1750579;80;20249;-83
2021/12/01 04:34:19;;;;;;;;;;;;;;;1.90;87.97;98682.87;1762563;80;20145;-83
2021/12/01 04:36:45;;;;;;;;;;;;;;;1.91;88.20;98679.78;1756485;80;20650;-84
2021/12/01 04:39:13;;;;;;;;;;;;;;;1.91;88.73;98688.89;1772349;80;21221;-83
2021/12/01 04:41:50;;;;;;;;;;;;;;;1.86;89.02;98698.91;1760837;80;20477;-83
2021/12/01 04:44:11;;;;;;;;;;;;;;;1.74;89.78;98696.44;1759420;80;20211;-83
2021/12/01 04:46:44;;;;;;;;;;;;;;;1.56;91.07;98698.05;1759901;80;20103;-84
2021/12/01 04:49:14;;;;;;;;;;;;;;;1.60;91.46;98696.81;1751974;80;20174;-88
2021/12/01 04:51:40;;;;;;;;;;;;;;;1.59;91.39;98701.69;1752596;80;21776;-84
2021/12/01 04:54:08;;;;;;;;;;;;;;;1.70;90.52;98698.14;1758749;80;20162;-84
2021/12/01 04:56:40;;;;;;;;;;;;;;;1.62;90.95;98701.42;1746321;80;20535;-83
2021/12/01 04:59:06;;;;;;;;;;;;;;;1.61;91.03;98707.57;1746238;80;20212;-83
2021/12/01 05:01:35;;;;;;;;;;;;;;;1.60;90.91;98713.72;1765749;80;20511;-86
2021/12/01 05:04:00;;;;;;;;;;;;;;;1.53;91.30;98721.73;1759641;80;21175;-84
2021/12/01 05:06:26;;;;;;;;;;;;;;;1.52;90.93;98721.38;1756517;80;20185;-84
2021/12/01 05:08:53;;;;;;;;;;;;;;;1.53;90.95;98728.23;1763609;80;20275;-84
2021/12/01 05:11:19;;;;;;;;;;;;;;;1.49;90.84;98730.75;1760726;79;20197;-83
2021/12/01 05:13:46;;;;;;;;;;;;;;;1.48;91.02;98742.14;1759909;80;21314;-84
2021/12/01 05:16:13;;;;;;;;;;;;;;;1.49;90.95;98743.77;1756443;80;21127;-85
2021/12/01 05:18:39;;;;;;;;;;;;;;;1.52;91.03;98748.70;1738640;80;20193;-84
2021/12/01 05:21:05;;;;;;;;;;;;;;;1.56;91.04;98753.50;1765844;80;20486;-84
2021/12/01 05:23:31;;;;;;;;;;;;;;;1.48;91.08;98760.34;1765573;79;20088;-81
2021/12/01 05:25:56;;;;;;;;;;;;;;;1.47;91.21;98759.50;1766435;79;20169;-84
2021/12/01 05:28:22;;;;;;;;;;;;;;;1.18;92.02;98755.04;1765836;80;21096;-82
2021/12/01 05:30:47;;;;;;;;;;;;;;;0.96;93.80;98758.61;1757380;80;20261;-81
2021/12/01 05:33:15;;;;;;;;;;;;;;;0.87;94.65;98769.77;1764674;80;20279;-82
2021/12/01 05:35:46;;;;;;;;;;;;;;;0.90;94.93;98772.11;1726158;80;20215;-83
2021/12/01 05:38:13;;;;;;;;;;;;;;;0.63;95.88;98757.88;1756032;79;20230;-82
2021/12/01 05:40:39;;;;;;;;;;;;;;;0.79;95.82;98764.41;1718699;79;21020;-83
2021/12/01 05:43:06;;;;;;;;;;;;;;;0.93;95.90;98761.47;1757133;79;20130;-85
2021/12/01 05:45:35;;;;;;;;;;;;;;;1.04;94.62;98754.91;1764619;80;20257;-83
2021/12/01 05:48:01;;;;;;;;;;;;;;;1.02;94.86;98758.09;1763302;80;20178;-83
2021/12/01 05:50:27;;;;;;;;;;;;;;;1.03;94.94;98766.25;1764819;79;21058;-89
2021/12/01 05:52:53;;;;;;;;;;;;;;;0.90;95.25;98765.63;1765646;80;21093;-84
2021/12/01 05:55:20;;;;;;;;;;;;;;;0.95;95.46;98762.63;1767829;79;20155;-84
2021/12/01 05:57:46;;;;;;;;;;;;;;;0.90;95.60;98764.32;1766901;80;20545;-87
2021/12/01 06:00:16;;;;;;;;;;;;;;;0.88;96.08;98781.83;1754826;80;20457;-80
2021/12/01 06:02:44;;;;;;;;;;;;;;;0.89;96.13;98780.89;1761685;79;20208;-82
2021/12/01 06:05:10;;;;;;;;;;;;;;;0.84;96.65;98786.92;1753683;80;20103;-82
2021/12/01 06:07:36;;;;;;;;;;;;;;;0.72;97.69;98790.08;1762797;80;20155;-87
2021/12/01 06:10:02;;;;;;;;;;;;;;;0.82;97.63;98794.03;1761075;80;20135;-80
2021/12/01 06:12:30;;;;;;;;;;;;;;;0.83;97.29;98789.19;1763902;79;20163;-87
2021/12/01 06:14:56;;;;;;;;;;;;;;;0.84;97.47;98783.87;1733136;80;20168;-84
2021/12/01 06:17:22;;;;;;;;;;;;;;;0.81;97.69;98781.98;1763230;80;21119;-82
2021/12/01 06:19:48;;;;;;;;;;;;;;;0.65;98.13;98774.19;1755481;80;20121;-83
2021/12/01 06:22:15;;;;;;;;;;;;;;;0.92;97.64;98776.73;1754037;79;20255;-81
2021/12/01 06:24:44;;;;;;;;;;;;;;;0.97;97.45;98775.86;1762342;80;20225;-87
2021/12/01 06:27:09;;;;;;;;;;;;;;;1.02;96.87;98773.69;1760997;80;20244;-86
2021/12/01 06:29:36;;;;;;;;;;;;;;;0.74;98.14;98780.86;1753190;80;21028;-81
2021/12/01 06:32:02;;;;;;;;;;;;;;;0.84;98.16;98792.13;1758116;79;20945;-85
2021/12/01 06:34:28;;;;;;;;;;;;;;;0.77;98.87;98792.30;1762688;80;20246;-86
2021/12/01 06:37:15;;;;;;;;;;;;;;;0.47;99.29;98766.13;1761591;79;20191;-84
2021/12/01 06:39:40;;;;;;;;;;;;;;;0.59;99.80;98788.13;1759207;80;20647;-87
2021/12/01 06:42:08;;;;;;;;;;;;;;;0.85;99.76;98797.67;1753757;80;21150;-83
2021/12/01 06:44:35;;;;;;;;;;;;;;;0.99;98.58;98801.23;1734265;79;20178;-85
2021/12/01 06:47:02;;;;;;;;;;;;;;;0.98;98.50;98802.21;1761308;79;20155;-88
2021/12/01 06:49:28;;;;;;;;;;;;;;;0.94;98.51;98806.00;1760432;80;20162;-87
2021/12/01 06:51:55;;;;;;;;;;;;;;;1.06;98.23;98816.68;1764969;80;20207;-86
2021/12/01 06:54:21;;;;;;;;;;;;;;;1.05;98.15;98816.81;1756914;79;21145;-87
2021/12/01 06:56:46;;;;;;;;;;;;;;;1.06;98.56;98821.88;1766753;79;20107;-85
2021/12/01 06:59:14;;;;;;;;;;;;;;;1.21;97.58;98817.18;1758483;80;20449;-84
2021/12/01 07:01:41;;;;;;;;;;;;;;;1.33;97.52;98815.30;1760960;79;20133;-87
2021/12/01 07:04:06;;;;;;;;;;;;;;;1.36;96.50;98824.63;1757954;79;20494;-84
2021/12/01 07:06:34;;;;;;;;;;;;;;;1.52;96.50;98831.95;1768592;80;21008;-84
2021/12/01 07:09:00;;;;;;;;;;;;;;;1.31;96.76;98832.83;1734696;80;20223;-87
2021/12/01 07:11:28;;;;;;;;;;;;;;;1.28;97.60;98827.87;1759123;80;20148;-85
2021/12/01 07:13:55;;;;;;;;;;;;;;;1.48;97.52;98833.19;1762021;80;20139;-86
2021/12/01 07:16:23;;;;;;;;;;;;;;;1.34;97.59;98832.56;1765419;80;20172;-85
2021/12/01 07:18:48;;;;;;;;;;;;;;;1.83;96.48;98835.82;1757985;80;21129;-84
2021/12/01 07:21:14;;;;;;;;;;;;;;;1.90;95.54;98832.55;1769578;80;20579;-86
2021/12/01 07:23:40;;;;;;;;;;;;;;;1.69;95.00;98832.62;1742468;80;20143;-86
2021/12/01 07:26:05;;;;;;;;;;;;;;;1.71;96.95;98828.13;1762584;80;20498;-83
2021/12/01 07:28:31;;;;;;;;;;;;;;;1.81;96.67;98836.44;1764895;80;20140;-86
2021/12/01 07:31:00;;;;;;;;;;;;;;;1.86;95.82;98840.77;1765787;79;21137;-87
2021/12/01 07:33:26;;;;;;;;;;;;;;;1.88;95.90;98830.58;1759360;80;20143;-85
2021/12/01 07:35:52;;;;;;;;;;;;;;;2.08;95.45;98826.23;1735812;80;20496;-83
2021/12/01 07:38:17;;;;;;;;;;;;;;;2.06;95.10;98829.92;1765842;80;20208;-84
2021/12/01 07:40:43;;;;;;;;;;;;;;;2.10;94.41;98829.52;1765912;80;20725;-89
2021/12/01 07:43:11;;;;;;;;;;;;;;;2.22;94.27;98827.63;1771309;80;21102;-82
2021/12/01 07:45:43;;;;;;;;;;;;;;;2.13;93.47;98829.25;1770780;79;20342;-85
2021/12/01 07:48:08;;;;;;;;;;;;;;;2.31;93.42;98828.58;1772539;80;20172;-81
2021/12/01 07:50:37;;;;;;;;;;;;;;;2.32;93.70;98830.23;1769664;80;20188;-83
2021/12/01 07:53:02;;;;;;;;;;;;;;;2.26;93.97;98822.95;1767989;79;20125;-84
2021/12/01 07:55:28;;;;;;;;;;;;;;;2.37;93.50;98825.42;1741948;80;21154;-83
2021/12/01 07:57:55;;;;;;;;;;;;;;;2.80;91.97;98834.61;1772696;80;20457;-84
2021/12/01 08:00:22;;;;;;;;;;;;;;;2.65;90.70;98828.17;1770218;80;20133;-83
2021/12/01 08:02:48;;;;;;;;;;;;;;;2.60;91.00;98823.86;1734601;80;20232;-88
2021/12/01 08:05:15;;;;;;;;;;;;;;;2.54;91.51;98820.50;1771883;80;20180;-87
2021/12/01 08:07:42;;;;;;;;;;;;;;;2.64;91.56;98821.30;1757837;79;21156;-82
2021/12/01 08:10:10;;;;;;;;;;;;;;;2.44;91.75;98810.91;1757163;79;20150;-83
2021/12/01 08:12:38;;;;;;;;;;;;;;;2.36;91.99;98812.05;1767659;80;20179;-86
2021/12/01 08:15:05;;;;;;;;;;;;;;;2.34;92.07;98812.67;1763511;80;20266;-83
2021/12/01 08:17:32;;;;;;;;;;;;;;;2.11;93.56;98812.94;1727982;80;20198;-84
2021/12/01 08:19:58;;;;;;;;;;;;;;;1.98;94.50;98804.06;1761771;79;21238;-86
2021/12/01 08:22:26;;;;;;;;;;;;;;;2.06;94.45;98812.50;1757330;80;20177;-85
2021/12/01 08:24:57;;;;;;;;;;;;;;;2.03;94.49;98794.55;1756424;80;20217;-84
2021/12/01 08:27:24;;;;;;;;;;;;;;;2.07;95.02;98784.70;1763469;80;20173;-86
2021/12/01 08:29:50;;;;;;;;;;;;;;;2.24;94.71;98784.02;1759678;80;20237;-85
2021/12/01 08:32:17;;;;;;;;;;;;;;;2.24;94.16;98780.61;1761874;80;21171;-85
2021/12/01 08:34:47;;;;;;;;;;;;;;;2.28;94.23;98780.66;1757897;79;20184;-85
2021/12/01 08:37:14;;;;;;;;;;;;;;;2.38;93.83;98797.58;1763788;80;20184;-82
2021/12/01 08:39:40;;;;;;;;;;;;;;;2.41;93.49;98799.45;1762229;79;20128;-86
2021/12/01 08:42:05;;;;;;;;;;;;;;;2.35;93.71;98796.09;1729565;80;20207;-82
2021/12/01 08:44:33;;;;;;;;;;;;;;;2.35;94.23;98793.48;1757271;79;21151;-83
2021/12/01 08:47:01;;;;;;;;;;;;;;;2.57;93.93;98790.26;1756174;80;20184;-83
2021/12/01 08:49:26;;;;;;;;;;;;;;;2.61;93.86;98790.30;1760064;80;20140;-86
2021/12/01 08:51:53;;;;;;;;;;;;;;;2.83;93.09;98792.62;1763473;80;20221;-84
2021/12/01 08:54:21;;;;;;;;;;;;;;;2.75;92.11;98792.50;1760031;79;20176;-86
2021/12/01 08:56:47;;;;;;;;;;;;;;;2.66;92.58;98789.42;1760491;79;21197;-86
2021/12/01 08:59:14;;;;;;;;;;;;;;;2.62;93.23;98788.86;1760726;80;20140;-85
2021/12/01 09:01:40;;;;;;;;;;;;;;;2.73;92.92;98786.59;1761196;79;20225;-85
2021/12/01 09:04:06;;;;;;;;;;;;;;;2.68;92.67;98775.77;1762497;80;20173;-84
2021/12/01 09:06:31;;;;;;;;;;;;;;;2.74;92.93;98764.78;1760914;79;20129;-84
2021/12/01 09:09:03;;;;;;;;;;;;;;;2.89;92.84;98758.66;1762347;79;20976;-85
2021/12/01 09:11:30;;;;;;;;;;;;;;;2.77;92.75;98756.68;1730594;80;20586;-85
2021/12/01 09:13:56;;;;;;;;;;;;;;;3.00;92.67;98760.27;1764131;79;20249;-84
2021/12/01 09:16:22;;;;;;;;;;;;;;;3.00;91.97;98758.97;1764997;80;20151;-90
2021/12/01 09:18:48;;;;;;;;;;;;;;;3.17;91.12;98756.91;1761741;80;20276;-84
2021/12/01 09:21:14;;;;;;;;;;;;;;;3.15;90.85;98752.30;1762122;80;21924;-83
2021/12/01 09:23:40;;;;;;;;;;;;;;;2.94;91.44;98754.32;1760503;79;20387;-88
2021/12/01 09:26:08;;;;;;;;;;;;;;;2.93;92.15;98760.48;1758744;80;20199;-87
2021/12/01 09:28:33;;;;;;;;;;;;;;;2.97;91.29;98757.45;1767008;80;20195;-84
2021/12/01 09:30:59;;;;;;;;;;;;;;;2.99;91.32;98758.62;1760241;80;20153;-85
2021/12/01 09:33:28;;;;;;;;;;;;;;;3.04;91.65;98755.09;1731779;80;20772;-85
2021/12/01 09:35:56;;;;;;;;;;;;;;;3.19;91.08;98758.07;1763199;80;20327;-85
2021/12/01 09:38:21;;;;;;;;;;;;;;;3.09;90.66;98758.08;1759823;80;20222;-84
2021/12/01 09:40:51;;;;;;;;;;;;;;;3.40;90.42;98752.61;1757501;79;20770;-88
2021/12/01 09:43:21;;;;;;;;;;;;;;;3.41;89.73;98759.48;1757459;80;20432;-86
2021/12/01 09:45:47;;;;;;;;;;;;;;;3.40;89.96;98748.23;1754879;79;20205;-86
2021/12/01 09:48:15;;;;;;;;;;;;;;;3.51;90.08;98739.85;1757362;80;20200;-87
2021/12/01 09:50:40;;;;;;;;;;;;;;;3.47;89.26;98732.80;1764902;80;20169;-86
2021/12/01 09:53:06;;;;;;;;;;;;;;;3.36;89.77;98727.79;1765625;80;20433;-85
2021/12/01 09:55:31;;;;;;;;;;;;;;;3.35;90.41;98731.36;1762353;80;20147;-85
2021/12/01 09:58:16;;;;;;;;;;;;;;;3.53;89.89;98718.36;1758118;80;21925;-84
2021/12/01 10:00:47;;;;;;;;;;;;;;;3.50;89.49;98720.77;1780258;79;20117;-85
2021/12/01 10:03:15;;;;;;;;;;;;;;;3.56;89.92;98720.19;1773936;79;20483;-86
2021/12/01 10:06:13;;;;;;;;;;;;;;;3.32;89.46;98717.30;1733078;82;20343;-84
2021/12/01 10:08:35;;;;;;;;;;;;;;;3.52;89.65;98712.30;1738865;81;20107;-83
2021/12/01 10:11:07;;;;;;;;;;;;;;;3.64;89.82;98712.12;1704658;82;21109;-84
2021/12/01 10:13:39;;;;;;;;;;;;;;;3.05;91.14;98720.23;1736725;81;20566;-87
2021/12/01 10:16:08;;;;;;;;;;;;;;;3.13;91.84;98711.70;1744202;81;20241;-83
2021/12/01 10:18:44;;;;;;;;;;;;;;;3.46;91.03;98703.75;1721827;81;20221;-83
2021/12/01 10:21:16;;;;;;;;;;;;;;;3.71;89.32;98694.88;1745824;81;20838;-84
2021/12/01 10:23:48;;;;;;;;;;;;;;;3.58;89.08;98695.24;1748884;80;21264;-84
2021/12/01 10:26:18;;;;;;;;;;;;;;;3.66;89.73;98702.34;1754510;80;20156;-85
2021/12/01 10:28:49;;;;;;;;;;;;;;;3.95;89.01;98705.55;1747359;80;20114;-88
2021/12/01 10:31:37;;;;;;;;;;;;;;;4.10;88.66;98702.41;1746365;81;20165;-86
2021/12/01 10:34:14;;;;;;;;;;;;;;;4.22;88.29;98698.59;1743720;81;36212;-83
2021/12/01 10:36:43;;;;;;;;;;;;;;;4.02;87.21;98704.46;1745642;81;21212;-84
2021/12/01 10:39:09;;;;;;;;;;;;;;;4.10;87.71;98694.56;1747394;81;20137;-83
2021/12/01 10:41:38;;;;;;;;;;;;;;;4.18;87.80;98699.88;1752042;81;20149;-83
2021/12/01 10:44:13;;;;;;;;;;;;;;;4.20;87.75;98696.63;1744710;81;20165;-89
2021/12/01 10:46:46;;;;;;;;;;;;;;;4.13;87.64;98699.49;1750127;81;21097;-84
2021/12/01 10:49:16;;;;;;;;;;;;;;;4.24;87.68;98697.97;1745628;81;22122;-85
2021/12/01 10:51:43;;;;;;;;;;;;;;;4.14;86.85;98694.12;1749379;81;20125;-86
2021/12/01 10:54:19;;;;;;;;;;;;;;;4.00;86.95;98688.63;1746835;80;20169;-85
2021/12/01 10:56:46;;;;;;;;;;;;;;;4.16;87.02;98687.44;1723948;81;20236;-85
2021/12/01 10:59:16;;;;;;;;;;;;;;;3.90;85.59;98684.30;1740219;81;20208;-88
2021/12/01 11:01:43;;;;;;;;;;;;;;;3.74;85.37;98678.45;1752124;81;20148;-89
2021/12/01 11:04:09;;;;;;;;;;;;;;;3.94;85.72;98671.26;1745090;81;20137;-86
2021/12/01 11:06:40;;;;;;;;;;;;;;;3.95;85.51;98676.02;1746332;81;20160;-83
2021/12/01 11:09:09;;;;;;;;;;;;;;;3.88;83.65;98673.16;1747456;81;20141;-90
2021/12/01 11:11:38;;;;;;;;;;;;;;;4.09;84.33;98672.86;1743769;81;20224;-88
2021/12/01 11:14:13;;;;;;;;;;;;;;;4.24;84.29;98674.45;1747153;81;22435;-88
2021/12/01 11:16:39;;;;;;;;;;;;;;;4.28;83.98;98671.85;1750554;80;20141;-86
2021/12/01 11:19:07;;;;;;;;;;;;;;;4.31;83.36;98670.24;1747242;81;20173;-88
2021/12/01 11:21:37;;;;;;;;;;;;;;;4.30;82.91;98657.33;1724626;81;20189;-86
2021/12/01 11:24:06;;;;;;;;;;;;;;;4.33;82.98;98652.30;1743842;80;20178;-86
2021/12/01 11:26:32;;;;;;;;;;;;;;;4.46;82.71;98660.56;1749145;80;22110;-82
2021/12/01 11:28:59;;;;;;;;;;;;;;;4.29;82.91;98649.98;1746206;81;20140;-89
2021/12/01 11:31:28;;;;;;;;;;;;;;;4.11;83.39;98643.48;1748117;81;20167;-84
2021/12/01 11:33:56;;;;;;;;;;;;;;;4.13;83.71;98644.63;1746471;81;20597;-85
2021/12/01 11:36:26;;;;;;;;;;;;;;;4.21;83.54;98643.87;1743390;81;20193;-86
2021/12/01 11:38:54;;;;;;;;;;;;;;;4.21;84.01;98634.27;1743838;81;21123;-85
2021/12/01 11:41:24;;;;;;;;;;;;;;;4.24;84.16;98635.73;1742184;81;20249;-85
2021/12/01 11:43:52;;;;;;;;;;;;;;;4.33;84.49;98630.89;1753036;81;20161;-87
2021/12/01 11:46:19;;;;;;;;;;;;;;;4.43;84.52;98633.42;1745280;81;20188;-82
2021/12/01 11:48:52;;;;;;;;;;;;;;;4.47;84.61;98622.97;1743992;81;20181;-84
2021/12/01 11:51:38;;;;;;;;;;;;;;;4.43;83.98;98621.66;1744471;81;20133;-86
2021/12/01 11:54:11;;;;;;;;;;;;;;;4.44;83.59;98629.34;1753647;80;20237;-84
2021/12/01 11:56:42;;;;;;;;;;;;;;;4.56;83.98;98621.23;1746184;80;20162;-85
2021/12/01 11:59:19;;;;;;;;;;;;;;;4.48;84.08;98616.28;1730077;81;20542;-82
2021/12/01 12:02:07;;;;;;;;;;;;;;;4.38;84.00;98621.28;1740331;80;20102;-82
2021/12/01 12:04:47;;;;;;;;;;;;;;;4.43;83.80;98608.59;1749730;81;21274;-82
2021/12/01 12:07:27;;;;;;;;;;;;;;;4.29;84.21;98610.79;1748498;80;20166;-85
2021/12/01 12:10:05;;;;;;;;;;;;;;;4.45;84.31;98596.18;1750214;80;20494;-84
2021/12/01 12:12:45;;;;;;;;;;;;;;;4.35;84.11;98596.30;1760349;80;20161;-85
2021/12/01 12:15:15;;;;;;;;;;;;;;;4.33;84.52;98594.80;1742373;79;20171;-83
2021/12/01 12:17:40;;;;;;;;;;;;;;;4.30;84.59;98583.70;1753145;79;21228;-83
2021/12/01 12:20:20;;;;;;;;;;;;;;;4.41;84.30;98577.85;1749425;79;20152;-80
2021/12/01 12:22:46;;;;;;;;;;;;;;;4.43;84.16;98579.84;1759419;80;20175;-84
2021/12/01 12:25:32;;;;;;;;;;;;;;;4.43;83.97;98564.16;1763475;80;20168;-88
2021/12/01 12:28:03;;;;;;;;;;;;;;;4.45;84.25;98564.81;1772822;79;20124;-85
2021/12/01 12:30:40;;;;;;;;;;;;;;;4.39;84.43;98557.59;1764352;79;20219;-87
2021/12/01 12:33:38;;;;;;;;;;;;;;;4.63;83.61;98557.71;1770122;79;20511;-80
2021/12/01 12:36:07;;;;;;;;;;;;;;;4.74;83.35;98543.53;1760981;80;20123;-84
2021/12/01 12:38:36;;;;;;;;;;;;;;;4.76;82.73;98544.68;1765579;79;20212;-83
2021/12/01 12:41:14;;;;;;;;;;;;;;;4.86;82.77;98542.73;1765532;79;20197;-85
2021/12/01 12:43:44;;;;;;;;;;;;;;;4.83;82.77;98529.50;1770071;79;21013;-88
2021/12/01 12:46:19;;;;;;;;;;;;;;;4.89;82.58;98518.06;1757759;79;20157;-86
2021/12/01 12:48:52;;;;;;;;;;;;;;;4.90;82.66;98513.98;1731503;80;20206;-86
2021/12/01 12:51:29;;;;;;;;;;;;;;;4.92;82.90;98508.59;1770406;79;20203;-86
2021/12/01 12:54:06;;;;;;;;;;;;;;;4.97;82.85;98503.22;1756921;80;20195;-84
2021/12/01 12:56:38;;;;;;;;;;;;;;;5.04;82.43;98500.27;1760427;79;21135;-85
2021/12/01 12:59:26;;;;;;;;;;;;;;;5.03;81.96;98496.03;1764487;79;20153;-91
2021/12/01 13:01:53;;;;;;;;;;;;;;;4.98;82.08;98493.06;1757847;79;20214;-85
2021/12/01 13:04:51;;;;;;;;;;;;;;;4.91;81.87;98484.24;1735373;80;20341;-85
2021/12/01 13:07:35;;;;;;;;;;;;;;;5.00;81.94;98488.51;1761674;79;20195;-86
2021/12/01 13:10:15;;;;;;;;;;;;;;;5.02;81.37;98485.23;1771590;79;21224;-85
2021/12/01 13:12:48;;;;;;;;;;;;;;;4.99;81.53;98480.33;1771959;79;20430;-90